createdAt,value
2023-04-16T00:01:58.934Z,14.55
2023-04-16T00:04:26.466Z,15.90
2023-04-16T00:06:54.303Z,16.98
2023-04-16T00:09:21.423Z,14.25
2023-04-16T00:11:48.733Z,15.73
2023-04-16T00:14:15.744Z,19.23
2023-04-16T00:16:42.885Z,16.05
2023-04-16T00:19:10.494Z,20.77
2023-04-16T00:21:38.407Z,20.13
2023-04-16T00:24:05.859Z,25.20
2023-04-16T00:26:33.049Z,31.73
2023-04-16T00:29:00.762Z,35.58
2023-04-16T00:31:32.045Z,33.70
2023-04-16T00:33:59.133Z,43.40
2023-04-16T00:36:27.177Z,42.85
2023-04-16T00:38:55.177Z,33.00
2023-04-16T00:41:22.882Z,31.35
2023-04-16T00:43:50.581Z,43.25
2023-04-16T00:46:19.014Z,38.60
2023-04-16T00:48:46.795Z,39.33
2023-04-16T00:51:14.399Z,32.70
2023-04-16T00:53:42.573Z,26.77
2023-04-16T00:56:09.996Z,21.02
2023-04-16T00:58:37.253Z,37.13
2023-04-16T01:01:04.716Z,21.75
2023-04-16T01:03:37.356Z,19.45
2023-04-16T01:06:05.106Z,21.20
2023-04-16T01:08:32.430Z,20.20
2023-04-16T01:10:59.567Z,41.60
2023-04-16T01:13:27.071Z,27.17
2023-04-16T01:15:54.255Z,21.50
2023-04-16T01:18:22.039Z,23.75
2023-04-16T01:20:50.239Z,26.13
2023-04-16T01:23:18.682Z,12.45
2023-04-16T01:25:46.901Z,13.05
2023-04-16T01:28:14.343Z,18.65
2023-04-16T01:30:41.947Z,15.52
2023-04-16T01:33:38.345Z,20.85
2023-04-16T01:36:07.147Z,18.80
2023-04-16T01:38:34.471Z,16.88
2023-04-16T01:41:01.861Z,15.18
2023-04-16T01:43:29.491Z,13.65
2023-04-16T01:46:11.163Z,28.45
2023-04-16T01:48:38.210Z,24.42
2023-04-16T01:51:05.624Z,11.82
2023-04-16T01:53:34.340Z,14.90
2023-04-16T01:56:02.873Z,15.73
2023-04-16T01:58:31.837Z,17.55
2023-04-16T02:00:59.358Z,19.85
2023-04-16T02:03:27.509Z,24.10
2023-04-16T02:05:55.422Z,22.17
2023-04-16T02:08:23.169Z,19.85
2023-04-16T02:10:50.695Z,17.73
2023-04-16T02:13:18.096Z,15.85
2023-04-16T02:15:48.245Z,21.70
2023-04-16T02:18:19.940Z,17.02
2023-04-16T02:20:49.229Z,30.55
2023-04-16T02:23:17.040Z,23.90
2023-04-16T02:25:46.120Z,16.52
2023-04-16T02:28:15.761Z,12.82
2023-04-16T02:30:44.501Z,16.75
2023-04-16T02:33:13.401Z,24.80
2023-04-16T02:35:50.944Z,16.50
2023-04-16T02:38:18.262Z,23.08
2023-04-16T02:40:45.524Z,24.65
2023-04-16T02:43:12.930Z,26.42
2023-04-16T02:45:40.380Z,21.65
2023-04-16T02:48:08.757Z,24.80
2023-04-16T02:50:36.483Z,24.65
2023-04-16T02:53:04.086Z,26.58
2023-04-16T02:55:31.481Z,25.63
2023-04-16T02:57:58.809Z,22.10
2023-04-16T03:00:26.317Z,31.85
2023-04-16T03:02:54.195Z,24.88
2023-04-16T03:05:21.475Z,23.35
2023-04-16T03:07:50.452Z,23.73
2023-04-16T03:10:17.602Z,27.08
2023-04-16T03:12:44.639Z,21.42
2023-04-16T03:15:12.056Z,21.88
2023-04-16T03:17:39.695Z,17.73
2023-04-16T03:20:07.472Z,18.08
2023-04-16T03:22:35.131Z,17.75
2023-04-16T03:25:02.348Z,16.27
2023-04-16T03:27:31.395Z,14.60
2023-04-16T03:29:58.790Z,13.25
2023-04-16T03:32:26.421Z,10.32
2023-04-16T03:34:53.796Z,14.73
2023-04-16T03:37:21.596Z,11.73
2023-04-16T03:39:50.928Z,11.60
2023-04-16T03:42:18.625Z,15.75
2023-04-16T03:44:46.114Z,16.85
2023-04-16T03:47:15.532Z,16.70
2023-04-16T03:49:44.349Z,19.52
2023-04-16T03:52:12.385Z,15.90
2023-04-16T03:54:40.105Z,19.10
2023-04-16T03:57:19.416Z,13.00
2023-04-16T03:59:46.759Z,17.20
2023-04-16T04:02:13.952Z,13.70
2023-04-16T04:04:42.979Z,12.23
2023-04-16T04:07:10.814Z,13.55
2023-04-16T04:09:38.015Z,41.97
2023-04-16T04:12:05.481Z,27.17
2023-04-16T04:14:39.222Z,30.88
2023-04-16T04:17:08.308Z,43.53
2023-04-16T04:19:36.263Z,15.05
2023-04-16T04:22:04.415Z,13.45
2023-04-16T04:24:32.164Z,15.00
2023-04-16T04:26:59.290Z,11.73
2023-04-16T04:29:27.501Z,13.48
2023-04-16T04:31:55.461Z,11.52
2023-04-16T04:34:23.607Z,8.98
2023-04-16T04:36:51.105Z,17.60
2023-04-16T04:39:21.227Z,12.15
2023-04-16T04:41:51.885Z,11.40
2023-04-16T04:44:20.090Z,10.02
2023-04-16T04:46:47.468Z,12.45
2023-04-16T04:49:14.612Z,10.32
2023-04-16T04:51:42.176Z,10.60
2023-04-16T04:54:09.930Z,8.60
2023-04-16T04:56:37.189Z,12.50
2023-04-16T04:59:04.272Z,11.48
2023-04-16T05:01:31.751Z,9.02
2023-04-16T05:03:58.795Z,10.73
2023-04-16T05:06:28.387Z,9.45
2023-04-16T05:08:56.867Z,13.90
2023-04-16T05:11:24.650Z,10.77
2023-04-16T05:13:51.807Z,13.00
2023-04-16T05:16:18.867Z,10.43
2023-04-16T05:18:46.618Z,15.38
2023-04-16T05:21:13.683Z,14.02
2023-04-16T05:23:41.854Z,16.83
2023-04-16T05:26:09.142Z,15.68
2023-04-16T05:28:36.812Z,11.02
2023-04-16T05:31:03.861Z,11.55
2023-04-16T05:33:31.050Z,10.85
2023-04-16T05:35:58.314Z,12.48
2023-04-16T05:38:25.349Z,27.60
2023-04-16T05:40:52.707Z,13.20
2023-04-16T05:43:20.041Z,13.07
2023-04-16T05:45:47.507Z,12.05
2023-04-16T05:48:15.052Z,13.10
2023-04-16T05:50:42.255Z,13.38
2023-04-16T05:53:09.979Z,13.85
2023-04-16T05:55:37.039Z,16.48
2023-04-16T05:58:05.160Z,12.93
2023-04-16T06:00:32.948Z,12.80
2023-04-16T06:03:00.493Z,16.05
2023-04-16T06:05:29.264Z,15.48
2023-04-16T06:07:56.495Z,16.77
2023-04-16T06:10:23.813Z,18.10
2023-04-16T06:12:51.033Z,18.88
2023-04-16T06:15:18.116Z,12.82
2023-04-16T06:17:45.875Z,9.80
2023-04-16T06:20:13.377Z,13.10
2023-04-16T06:22:40.673Z,11.55
2023-04-16T06:25:08.428Z,13.52
2023-04-16T06:27:35.786Z,13.52
2023-04-16T06:30:02.949Z,14.48
2023-04-16T06:32:30.703Z,15.02
2023-04-16T06:34:58.453Z,14.07
2023-04-16T06:37:26.029Z,12.88
2023-04-16T06:39:53.486Z,17.25
2023-04-16T06:42:20.495Z,14.70
2023-04-16T06:44:48.065Z,10.57
2023-04-16T06:47:16.393Z,12.48
2023-04-16T06:49:43.844Z,15.25
2023-04-16T06:52:11.804Z,16.30
2023-04-16T06:54:39.441Z,10.90
2023-04-16T06:57:07.121Z,14.88
2023-04-16T06:59:34.611Z,11.25
2023-04-16T07:02:02.131Z,11.13
2023-04-16T07:04:29.495Z,14.60
2023-04-16T07:06:57.064Z,11.05
2023-04-16T07:09:24.653Z,9.57
2023-04-16T07:11:51.948Z,17.73
2023-04-16T07:14:19.053Z,16.83
2023-04-16T07:16:46.790Z,20.42
2023-04-16T07:19:14.220Z,29.95
2023-04-16T07:21:44.168Z,19.73
2023-04-16T07:24:11.554Z,25.70
2023-04-16T07:26:38.903Z,33.88
2023-04-16T07:29:06.138Z,19.05
2023-04-16T07:31:33.561Z,23.80
2023-04-16T07:34:00.974Z,32.30
2023-04-16T07:36:29.265Z,36.45
2023-04-16T07:38:56.695Z,33.75
2023-04-16T07:41:24.102Z,30.55
2023-04-16T07:43:51.222Z,15.25
2023-04-16T07:46:18.718Z,42.28
2023-04-16T07:48:46.015Z,29.05
2023-04-16T07:51:14.057Z,28.85
2023-04-16T07:53:43.046Z,20.55
2023-04-16T07:56:10.105Z,42.00
2023-04-16T07:58:37.228Z,12.98
2023-04-16T08:01:04.349Z,18.00
2023-04-16T08:03:32.425Z,26.95
2023-04-16T08:05:59.914Z,9.13
2023-04-16T08:08:27.807Z,9.35
2023-04-16T08:10:55.886Z,11.05
2023-04-16T08:13:23.808Z,10.93
2023-04-16T08:15:51.648Z,11.95
2023-04-16T08:18:18.945Z,13.73
2023-04-16T08:20:46.228Z,10.52
2023-04-16T08:23:13.403Z,12.35
2023-04-16T08:25:40.823Z,8.52
2023-04-16T08:28:08.506Z,13.55
2023-04-16T08:30:35.886Z,12.10
2023-04-16T08:33:03.000Z,10.77
2023-04-16T08:35:30.211Z,12.07
2023-04-16T08:37:58.058Z,14.57
2023-04-16T08:40:29.196Z,8.65
2023-04-16T08:42:58.870Z,20.58
2023-04-16T08:45:26.721Z,26.88
2023-04-16T08:47:54.190Z,25.38
2023-04-16T08:50:26.190Z,19.70
2023-04-16T08:52:58.247Z,21.60
2023-04-16T08:55:39.986Z,28.73
2023-04-16T08:58:20.855Z,19.73
2023-04-16T09:00:48.774Z,18.00
2023-04-16T09:03:15.806Z,17.15
2023-04-16T09:05:43.489Z,17.58
2023-04-16T09:08:10.620Z,10.82
2023-04-16T09:10:37.719Z,10.20
2023-04-16T09:13:05.055Z,9.80
2023-04-16T09:15:34.983Z,17.23
2023-04-16T09:18:02.320Z,14.20
2023-04-16T09:20:29.948Z,11.60
2023-04-16T09:22:57.216Z,10.50
2023-04-16T09:25:24.443Z,13.85
2023-04-16T09:27:51.530Z,13.48
2023-04-16T09:30:23.280Z,12.63
2023-04-16T09:32:51.499Z,10.75
2023-04-16T09:35:19.660Z,10.48
2023-04-16T09:38:05.132Z,12.73
2023-04-16T09:40:32.514Z,15.23
2023-04-16T09:43:00.896Z,11.05
2023-04-16T09:45:32.360Z,10.32
2023-04-16T09:48:03.330Z,10.43
2023-04-16T09:50:30.752Z,6.82
2023-04-16T09:52:58.772Z,7.00
2023-04-16T09:55:28.726Z,11.07
2023-04-16T09:58:01.105Z,22.95
2023-04-16T10:00:29.441Z,16.43
2023-04-16T10:03:07.210Z,17.60
2023-04-16T10:05:34.950Z,12.75
2023-04-16T10:08:02.420Z,10.65
2023-04-16T10:10:29.971Z,9.55
2023-04-16T10:12:57.666Z,9.10
2023-04-16T10:15:24.742Z,13.52
2023-04-16T10:17:51.976Z,15.48
2023-04-16T10:20:19.544Z,15.45
2023-04-16T10:22:47.032Z,8.80
2023-04-16T10:25:14.198Z,26.60
2023-04-16T10:27:41.571Z,12.32
2023-04-16T10:30:09.261Z,10.90
2023-04-16T10:32:37.774Z,8.73
2023-04-16T10:35:05.956Z,12.35
2023-04-16T10:37:33.111Z,13.57
2023-04-16T10:40:00.886Z,16.70
2023-04-16T10:42:28.157Z,17.75
2023-04-16T10:44:55.609Z,15.82
2023-04-16T10:47:26.059Z,13.27
2023-04-16T10:49:53.169Z,13.80
2023-04-16T10:52:22.086Z,22.38
2023-04-16T10:54:49.694Z,15.32
2023-04-16T10:57:18.084Z,18.08
2023-04-16T10:59:45.755Z,15.13
2023-04-16T11:02:17.310Z,13.40
2023-04-16T11:04:48.530Z,16.88
2023-04-16T11:07:21.616Z,18.80
2023-04-16T11:09:56.105Z,8.30
2023-04-16T11:12:24.369Z,12.35
2023-04-16T11:14:52.724Z,11.50
2023-04-16T11:17:20.486Z,13.65
2023-04-16T11:19:48.094Z,13.10
2023-04-16T11:22:17.199Z,10.35
2023-04-16T11:24:45.646Z,11.65
2023-04-16T11:27:13.950Z,18.67
2023-04-16T11:29:41.578Z,28.52
2023-04-16T11:32:08.790Z,32.55
2023-04-16T11:34:44.817Z,26.42
2023-04-16T11:37:12.107Z,28.50
2023-04-16T11:39:50.159Z,23.70
2023-04-16T11:42:23.722Z,29.13
2023-04-16T11:44:55.430Z,20.30
2023-04-16T11:47:26.255Z,18.13
2023-04-16T11:49:53.546Z,22.38
2023-04-16T11:52:30.668Z,26.05
2023-04-16T11:54:58.544Z,27.42
2023-04-16T11:57:30.203Z,32.92
2023-04-16T12:00:02.099Z,31.80
2023-04-16T12:02:41.298Z,23.27
2023-04-16T12:05:30.822Z,15.20
2023-04-16T12:07:58.614Z,19.73
2023-04-16T12:10:26.946Z,17.73
2023-04-16T12:12:54.420Z,23.63
2023-04-16T12:15:21.557Z,9.63
2023-04-16T12:17:50.560Z,13.85
2023-04-16T12:20:18.286Z,15.55
2023-04-16T12:22:47.313Z,13.07
2023-04-16T12:25:16.025Z,17.10
2023-04-16T12:27:48.006Z,11.88
2023-04-16T12:30:16.545Z,18.45
2023-04-16T12:32:44.558Z,12.60
2023-04-16T12:35:12.364Z,16.33
2023-04-16T12:37:40.103Z,10.52
2023-04-16T12:40:08.632Z,21.20
2023-04-16T12:42:36.061Z,14.68
2023-04-16T12:45:04.045Z,20.75
2023-04-16T12:47:32.087Z,14.80
2023-04-16T12:49:59.406Z,21.27
2023-04-16T12:52:27.285Z,13.40
2023-04-16T12:54:54.997Z,22.25
2023-04-16T12:57:28.272Z,22.52
2023-04-16T12:59:56.730Z,22.55
2023-04-16T13:02:24.350Z,23.88
2023-04-16T13:04:54.606Z,12.52
2023-04-16T13:07:22.057Z,12.27
2023-04-16T13:09:49.734Z,14.38
2023-04-16T13:12:17.158Z,15.65
2023-04-16T13:14:45.098Z,14.57
2023-04-16T13:17:12.653Z,15.93
2023-04-16T13:19:40.011Z,20.10
2023-04-16T13:22:07.400Z,12.98
2023-04-16T13:24:35.011Z,30.80
2023-04-16T13:27:02.164Z,19.15
2023-04-16T13:29:29.859Z,17.75
2023-04-16T13:31:57.464Z,23.27
2023-04-16T13:34:24.553Z,21.10
2023-04-16T13:36:52.251Z,15.13
2023-04-16T13:39:19.256Z,21.58
2023-04-16T13:41:49.074Z,27.73
2023-04-16T13:44:16.446Z,17.52
2023-04-16T13:46:47.662Z,14.13
2023-04-16T13:49:15.095Z,13.50
2023-04-16T13:51:45.770Z,17.73
2023-04-16T13:54:13.032Z,26.73
2023-04-16T13:56:40.588Z,12.07
2023-04-16T13:59:08.094Z,19.42
2023-04-16T14:01:35.637Z,14.18
2023-04-16T14:04:06.860Z,20.20
2023-04-16T14:06:34.835Z,25.13
2023-04-16T14:09:02.196Z,20.08
2023-04-16T14:11:29.259Z,17.40
2023-04-16T14:13:56.489Z,30.90
2023-04-16T14:16:23.727Z,25.23
2023-04-16T14:18:52.102Z,23.63
2023-04-16T14:21:19.666Z,32.08
2023-04-16T14:23:46.759Z,33.15
2023-04-16T14:26:14.468Z,26.70
2023-04-16T14:28:41.947Z,30.95
2023-04-16T14:31:09.600Z,29.48
2023-04-16T14:33:37.061Z,23.75
2023-04-16T14:36:04.400Z,16.27
2023-04-16T14:38:32.083Z,19.30
2023-04-16T14:41:00.131Z,19.15
2023-04-16T14:43:27.552Z,17.25
2023-04-16T14:45:58.250Z,17.52
2023-04-16T14:48:26.086Z,15.52
2023-04-16T14:50:53.930Z,18.80
2023-04-16T14:53:23.642Z,17.00
2023-04-16T14:55:51.960Z,18.30
2023-04-16T14:58:19.255Z,17.73
2023-04-16T15:00:46.864Z,15.20
2023-04-16T15:03:14.524Z,19.33
2023-04-16T15:05:41.707Z,22.83
2023-04-16T15:08:09.046Z,15.40
2023-04-16T15:10:37.697Z,15.20
2023-04-16T15:13:05.612Z,12.90
2023-04-16T15:15:33.010Z,11.98
2023-04-16T15:18:00.452Z,15.57
2023-04-16T15:20:28.115Z,20.15
2023-04-16T15:22:55.432Z,18.42
2023-04-16T15:25:24.360Z,18.90
2023-04-16T15:27:52.081Z,16.23
2023-04-16T15:30:19.477Z,12.07
2023-04-16T15:32:47.093Z,13.77
2023-04-16T15:35:14.498Z,9.35
2023-04-16T15:37:42.214Z,12.07
2023-04-16T15:40:09.591Z,11.93
2023-04-16T15:42:37.333Z,9.30
2023-04-16T15:45:05.157Z,16.60
2023-04-16T15:47:32.866Z,11.13
2023-04-16T15:50:00.050Z,19.17
2023-04-16T15:52:27.378Z,17.55
2023-04-16T15:54:55.258Z,18.50
2023-04-16T15:57:22.333Z,18.38
2023-04-16T16:00:05.438Z,17.55
2023-04-16T16:02:34.672Z,19.38
2023-04-16T16:05:02.957Z,19.38
2023-04-16T16:07:30.845Z,28.40
2023-04-16T16:09:59.451Z,17.10
2023-04-16T16:12:27.300Z,18.80
2023-04-16T16:14:54.513Z,22.23
2023-04-16T16:17:21.844Z,22.23
2023-04-16T16:19:49.088Z,24.40
2023-04-16T16:22:20.230Z,14.23
2023-04-16T16:24:53.598Z,14.57
2023-04-16T16:27:20.801Z,16.77
2023-04-16T16:29:48.144Z,16.00
2023-04-16T16:32:16.151Z,30.50
2023-04-16T16:34:43.942Z,23.65
2023-04-16T16:37:11.397Z,18.08
2023-04-16T16:39:39.028Z,20.65
2023-04-16T16:42:08.793Z,20.85
2023-04-16T16:44:36.488Z,17.75
2023-04-16T16:47:04.011Z,24.30
2023-04-16T16:49:31.353Z,15.48
2023-04-16T16:51:58.747Z,15.02
2023-04-16T16:54:25.878Z,15.13
2023-04-16T16:56:53.437Z,15.25
2023-04-16T16:59:20.520Z,16.92
2023-04-16T17:01:48.004Z,21.80
2023-04-16T17:04:18.583Z,17.13
2023-04-16T17:06:47.746Z,19.97
2023-04-16T17:09:14.953Z,17.40
2023-04-16T17:11:42.086Z,12.77
2023-04-16T17:14:09.074Z,9.48
2023-04-16T17:16:36.566Z,12.13
2023-04-16T17:19:04.022Z,10.10
2023-04-16T17:21:32.938Z,6.20
2023-04-16T17:24:00.421Z,8.85
2023-04-16T17:26:28.080Z,8.10
2023-04-16T17:28:57.174Z,7.57
2023-04-16T17:31:26.737Z,6.45
2023-04-16T17:33:54.429Z,8.65
2023-04-16T17:36:22.685Z,7.20
2023-04-16T17:38:50.643Z,4.57
2023-04-16T17:41:18.104Z,4.68
2023-04-16T17:43:48.971Z,9.18
2023-04-16T17:46:16.649Z,6.40
2023-04-16T17:48:44.356Z,7.57
2023-04-16T17:51:11.885Z,6.97
2023-04-16T17:53:39.607Z,10.15
2023-04-16T17:56:07.060Z,6.82
2023-04-16T17:58:35.052Z,8.95
2023-04-16T18:01:03.467Z,8.77
2023-04-16T18:03:31.543Z,6.05
2023-04-16T18:05:59.023Z,6.47
2023-04-16T18:08:26.711Z,4.38
2023-04-16T18:10:55.355Z,4.43
2023-04-16T18:13:24.018Z,5.38
2023-04-16T18:15:51.498Z,5.28
2023-04-16T18:18:20.305Z,8.40
2023-04-16T18:20:47.333Z,6.35
2023-04-16T18:23:14.657Z,4.03
2023-04-16T18:25:41.836Z,5.50
2023-04-16T18:28:09.581Z,4.47
2023-04-16T18:30:40.047Z,6.63
2023-04-16T18:33:34.394Z,7.18
2023-04-16T18:35:55.281Z,3.90
2023-04-16T18:38:22.665Z,8.43
2023-04-16T18:40:49.994Z,6.50
2023-04-16T18:43:17.407Z,4.65
2023-04-16T18:45:44.519Z,6.28
2023-04-16T18:48:11.653Z,5.00
2023-04-16T18:50:38.760Z,4.63
2023-04-16T18:53:06.215Z,4.55
2023-04-16T18:55:33.390Z,4.07
2023-04-16T18:58:00.396Z,5.15
2023-04-16T19:00:28.025Z,6.80
2023-04-16T19:02:55.248Z,6.43
2023-04-16T19:05:22.725Z,5.00
2023-04-16T19:07:50.062Z,6.25
2023-04-16T19:10:17.211Z,5.18
2023-04-16T19:12:44.740Z,6.45
2023-04-16T19:15:11.856Z,13.02
2023-04-16T19:17:39.579Z,6.40
2023-04-16T19:20:10.976Z,6.28
2023-04-16T19:22:38.323Z,9.70
2023-04-16T19:25:06.898Z,5.45
2023-04-16T19:27:34.644Z,8.60
2023-04-16T19:30:02.981Z,10.25
2023-04-16T19:32:30.830Z,8.88
2023-04-16T19:34:58.208Z,5.82
2023-04-16T19:37:25.517Z,8.52
2023-04-16T19:39:52.655Z,7.85
2023-04-16T19:42:20.048Z,6.88
2023-04-16T19:44:47.855Z,5.18
2023-04-16T19:47:15.215Z,7.72
2023-04-16T19:49:43.443Z,7.72
2023-04-16T19:52:10.764Z,5.05
2023-04-16T19:54:38.186Z,6.03
2023-04-16T19:57:05.860Z,5.60
2023-04-16T19:59:33.032Z,7.05
2023-04-16T20:02:00.458Z,6.40
2023-04-16T20:04:27.972Z,4.72
2023-04-16T20:06:55.630Z,5.55
2023-04-16T20:09:23.362Z,5.22
2023-04-16T20:11:51.617Z,4.18
2023-04-16T20:14:18.903Z,8.27
2023-04-16T20:16:46.330Z,9.68
2023-04-16T20:19:19.210Z,6.25
2023-04-16T20:24:14.990Z,6.65
2023-04-16T20:26:42.528Z,6.28
2023-04-16T20:29:10.425Z,8.07
2023-04-16T20:31:37.827Z,9.32
2023-04-16T20:34:05.327Z,4.85
2023-04-16T20:36:32.702Z,6.10
2023-04-16T20:39:02.167Z,6.03
2023-04-16T20:41:29.971Z,6.95
2023-04-16T20:43:57.459Z,6.85
2023-04-16T20:46:25.023Z,7.68
2023-04-16T20:48:52.369Z,7.57
2023-04-16T20:51:19.782Z,12.70
2023-04-16T20:53:46.796Z,6.57
2023-04-16T20:56:16.806Z,15.25
2023-04-16T20:58:44.012Z,7.85
2023-04-16T21:01:11.785Z,9.45
2023-04-16T21:03:39.288Z,13.10
2023-04-16T21:06:06.776Z,10.82
2023-04-16T21:08:35.187Z,13.73
2023-04-16T21:11:02.569Z,12.32
2023-04-16T21:13:30.153Z,13.05
2023-04-16T21:15:57.346Z,9.95
2023-04-16T21:18:24.870Z,9.90
2023-04-16T21:20:52.221Z,11.88
2023-04-16T21:23:19.553Z,8.50
2023-04-16T21:25:46.938Z,8.18
2023-04-16T21:28:14.510Z,8.90
2023-04-16T21:30:42.383Z,7.72
2023-04-16T21:33:11.917Z,9.60
2023-04-16T21:35:39.284Z,7.50
2023-04-16T21:38:06.700Z,9.48
2023-04-16T21:40:34.141Z,11.07
2023-04-16T21:43:01.302Z,12.23
2023-04-16T21:45:30.453Z,9.90
2023-04-16T21:47:58.000Z,9.77
2023-04-16T21:50:25.699Z,11.23
2023-04-16T21:52:54.463Z,9.27
2023-04-16T21:55:22.024Z,11.32
2023-04-16T21:57:49.341Z,7.97
2023-04-16T22:00:17.881Z,13.10
2023-04-16T22:02:45.269Z,13.05
2023-04-16T22:05:12.542Z,13.80
2023-04-16T22:07:39.952Z,11.18
2023-04-16T22:10:08.790Z,12.88
2023-04-16T22:12:39.438Z,11.38
2023-04-16T22:15:07.756Z,10.13
2023-04-16T22:17:35.382Z,16.33
2023-04-16T22:20:07.187Z,11.40
2023-04-16T22:22:34.463Z,13.85
2023-04-16T22:25:02.299Z,20.92
2023-04-16T22:27:29.854Z,15.50
2023-04-16T22:29:57.162Z,13.32
2023-04-16T22:32:24.793Z,13.85
2023-04-16T22:34:52.194Z,14.93
2023-04-16T22:37:19.451Z,16.65
2023-04-16T22:39:46.535Z,14.73
2023-04-16T22:42:13.655Z,13.77
2023-04-16T22:44:40.753Z,24.17
2023-04-16T22:47:07.954Z,18.70
2023-04-16T22:49:35.401Z,15.73
2023-04-16T22:52:02.859Z,13.55
2023-04-16T22:54:30.615Z,11.18
2023-04-16T22:56:58.038Z,17.23
2023-04-16T22:59:25.268Z,15.77
2023-04-16T23:01:52.399Z,27.45
2023-04-16T23:04:20.155Z,24.10
2023-04-16T23:06:47.617Z,23.73
2023-04-16T23:09:15.240Z,20.15
2023-04-16T23:11:42.601Z,21.80
2023-04-16T23:14:09.727Z,20.60
2023-04-16T23:16:36.639Z,25.38
2023-04-16T23:19:04.018Z,20.90
2023-04-16T23:21:32.214Z,18.10
2023-04-16T23:23:59.554Z,16.13
2023-04-16T23:26:27.045Z,15.15
2023-04-16T23:28:54.107Z,18.00
2023-04-16T23:31:21.212Z,14.40
2023-04-16T23:33:48.648Z,21.42
2023-04-16T23:36:16.312Z,21.55
2023-04-16T23:38:43.560Z,13.75
2023-04-16T23:41:11.116Z,16.90
2023-04-16T23:43:40.343Z,16.52
2023-04-16T23:46:07.992Z,17.95
2023-04-16T23:48:35.117Z,19.75
2023-04-16T23:51:02.453Z,13.25
2023-04-16T23:53:29.597Z,15.63
2023-04-16T23:55:56.930Z,17.30
2023-04-16T23:58:24.670Z,11.73
